Time;durP1;ratioP1;P1;durP2;ratioP2;P2;SDS_P1;SDS_P2;PMS_P1;PMS_P2;Temp;Humidity;BMP_temperature;BMP_pressure;BME280_temperature;BME280_humidity;BME280_pressure;Samples;Min_cycle;Max_cycle;Signal;HPM_P1;HPM_P2
2024/03/25 00:02:06;;;;;;;;;;;;;;;5.38;71.66;98680.27;128837;1276;109315;-83
2024/03/25 00:05:10;;;;;;;;;;;;;;;5.44;71.79;98675.89;128802;1276;106846;-85
2024/03/25 00:08:14;;;;;;;;;;;;;;;5.51;71.68;98675.04;128820;1278;107059;-83
2024/03/25 00:11:18;;;;;;;;;;;;;;;5.59;71.76;98674.90;128924;1276;108169;-83
2024/03/25 00:14:22;;;;;;;;;;;;;;;5.65;71.44;98678.98;128747;1278;106483;-83
2024/03/25 00:17:26;;;;;;;;;;;;;;;5.73;71.48;98673.55;128910;1277;107793;-84
2024/03/25 00:20:30;;;;;;;;;;;;;;;5.82;71.44;98674.24;128674;1278;106998;-84
2024/03/25 00:23:33;;;;;;;;;;;;;;;5.90;71.28;98672.54;128721;1276;107566;-86
2024/03/25 00:26:37;;;;;;;;;;;;;;;5.95;71.29;98670.42;128779;1275;107695;-84
2024/03/25 00:29:41;;;;;;;;;;;;;;;5.99;71.24;98673.78;128755;1279;107687;-83
2024/03/25 00:32:45;;;;;;;;;;;;;;;6.00;71.41;98671.66;128819;1278;107119;-84
2024/03/25 00:35:49;;;;;;;;;;;;;;;5.99;71.26;98666.80;128727;1278;108470;-83
2024/03/25 00:38:55;;;;;;;;;;;;;;;5.97;71.25;98666.02;128873;1275;106753;-82
2024/03/25 00:41:59;;;;;;;;;;;;;;;5.95;71.31;98667.14;128742;1276;106419;-85
2024/03/25 00:45:05;;;;;;;;;;;;;;;5.89;71.27;98667.70;128717;1279;108790;-84
2024/03/25 00:48:09;;;;;;;;;;;;;;;5.82;71.18;98661.70;128750;1279;107848;-83
2024/03/25 00:51:13;;;;;;;;;;;;;;;5.77;71.42;98659.41;128812;1281;107369;-83
2024/03/25 00:54:17;;;;;;;;;;;;;;;5.73;71.36;98655.80;128924;1275;106278;-83
2024/03/25 00:57:21;;;;;;;;;;;;;;;5.68;71.48;98651.24;128886;1282;108802;-83
2024/03/25 01:00:25;;;;;;;;;;;;;;;5.61;71.35;98648.44;128830;1275;106595;-83
2024/03/25 01:03:28;;;;;;;;;;;;;;;5.52;71.41;98647.76;128685;1279;106524;-84
2024/03/25 01:06:33;;;;;;;;;;;;;;;5.42;71.56;98644.33;128808;1278;106876;-86
2024/03/25 01:09:37;;;;;;;;;;;;;;;5.36;71.41;98636.00;128828;1278;108654;-83
2024/03/25 01:12:40;;;;;;;;;;;;;;;5.28;71.58;98632.92;128938;1276;107659;-84
2024/03/25 01:15:44;;;;;;;;;;;;;;;5.20;71.58;98624.13;128772;1276;107679;-83
2024/03/25 01:18:48;;;;;;;;;;;;;;;5.13;71.41;98624.49;128769;1276;107678;-83
2024/03/25 01:21:52;;;;;;;;;;;;;;;5.05;71.64;98622.39;128974;1275;107826;-83
2024/03/25 01:24:55;;;;;;;;;;;;;;;5.01;71.66;98627.67;128818;1278;107882;-83
2024/03/25 01:27:59;;;;;;;;;;;;;;;4.96;71.65;98626.36;128944;1279;107944;-84
2024/03/25 01:31:04;;;;;;;;;;;;;;;4.92;71.74;98624.98;128802;1274;107558;-83
2024/03/25 01:34:07;;;;;;;;;;;;;;;4.88;71.92;98626.41;128734;1278;107308;-83
2024/03/25 01:37:11;;;;;;;;;;;;;;;4.86;71.90;98631.42;128739;1278;106702;-83
2024/03/25 01:40:15;;;;;;;;;;;;;;;4.82;71.92;98633.62;128949;1276;106903;-83
2024/03/25 01:43:19;;;;;;;;;;;;;;;4.77;71.76;98635.23;128671;1281;107858;-83
2024/03/25 01:46:23;;;;;;;;;;;;;;;4.72;71.45;98640.95;128657;1281;108725;-83
2024/03/25 01:49:26;;;;;;;;;;;;;;;4.66;71.69;98642.67;128872;1279;107446;-83
2024/03/25 01:52:31;;;;;;;;;;;;;;;4.58;71.80;98639.35;128768;1276;107359;-83
2024/03/25 01:55:36;;;;;;;;;;;;;;;4.52;71.93;98635.55;128735;1276;108684;-83
2024/03/25 01:58:40;;;;;;;;;;;;;;;4.43;71.90;98629.23;128930;1280;108870;-83
2024/03/25 02:01:44;;;;;;;;;;;;;;;4.37;71.82;98630.07;128850;1276;108624;-83
2024/03/25 02:04:49;;;;;;;;;;;;;;;4.27;72.01;98625.89;128686;1278;107540;-83
2024/03/25 02:07:53;;;;;;;;;;;;;;;4.20;72.00;98626.48;128845;1278;109134;-83
2024/03/25 02:10:57;;;;;;;;;;;;;;;4.13;72.14;98629.59;128906;1279;106615;-83
2024/03/25 02:14:01;;;;;;;;;;;;;;;4.11;72.49;98630.88;128924;1276;107624;-83
2024/03/25 02:17:06;;;;;;;;;;;;;;;4.06;72.29;98627.61;128959;1277;109424;-82
2024/03/25 02:20:12;;;;;;;;;;;;;;;3.99;72.21;98632.23;128926;1276;108564;-81
2024/03/25 02:23:17;;;;;;;;;;;;;;;3.96;72.77;98637.27;128952;1275;107080;-83
2024/03/25 02:26:21;;;;;;;;;;;;;;;3.94;72.67;98633.58;128787;1278;107850;-83
2024/03/25 02:29:33;;;;;;;;;;;;;;;3.91;72.79;98632.27;128746;1278;107924;-83
2024/03/25 02:32:37;;;;;;;;;;;;;;;3.88;72.81;98633.28;128620;1278;223246;-83
2024/03/25 02:35:41;;;;;;;;;;;;;;;3.89;73.11;98634.73;128820;1276;108580;-84
2024/03/25 02:38:45;;;;;;;;;;;;;;;3.94;73.34;98636.75;128715;1278;107435;-84
2024/03/25 02:41:49;;;;;;;;;;;;;;;4.01;73.49;98639.95;128826;1276;107618;-83
2024/03/25 02:44:52;;;;;;;;;;;;;;;4.06;73.64;98640.67;128784;1280;106741;-83
2024/03/25 02:47:56;;;;;;;;;;;;;;;4.09;73.50;98644.93;128689;1281;106780;-83
2024/03/25 02:51:00;;;;;;;;;;;;;;;4.16;73.52;98645.65;128659;1276;107779;-83
2024/03/25 02:54:04;;;;;;;;;;;;;;;4.25;73.72;98647.21;128671;1279;108197;-83
2024/03/25 02:57:08;;;;;;;;;;;;;;;4.36;73.78;98640.89;128726;1276;108471;-86
2024/03/25 03:00:13;;;;;;;;;;;;;;;4.50;73.83;98643.34;128779;1276;106990;-83
2024/03/25 03:03:16;;;;;;;;;;;;;;;4.64;73.66;98643.85;128923;1276;106279;-83
2024/03/25 03:06:20;;;;;;;;;;;;;;;4.78;73.71;98641.13;128746;1278;108903;-83
2024/03/25 03:09:24;;;;;;;;;;;;;;;4.90;73.45;98638.42;128721;1279;108806;-83
2024/03/25 03:12:28;;;;;;;;;;;;;;;4.99;73.45;98638.18;128891;1279;107932;-84
2024/03/25 03:15:31;;;;;;;;;;;;;;;5.11;73.41;98641.45;128842;1281;107906;-83
2024/03/25 03:18:35;;;;;;;;;;;;;;;5.18;73.42;98644.55;128806;1276;106436;-84
2024/03/25 03:21:39;;;;;;;;;;;;;;;5.22;73.30;98648.38;128829;1278;106611;-83
2024/03/25 03:24:43;;;;;;;;;;;;;;;5.20;73.32;98644.86;128811;1278;109037;-83
2024/03/25 03:27:46;;;;;;;;;;;;;;;5.22;73.27;98646.15;129011;1275;107946;-83
2024/03/25 03:30:50;;;;;;;;;;;;;;;5.21;73.44;98642.48;128895;1276;107405;-83
2024/03/25 03:33:54;;;;;;;;;;;;;;;5.20;73.32;98644.59;128916;1278;107016;-86
2024/03/25 03:36:57;;;;;;;;;;;;;;;5.21;73.31;98650.05;129802;1276;108594;-87
2024/03/25 03:40:01;;;;;;;;;;;;;;;5.20;73.57;98654.38;129117;1281;108522;-85
2024/03/25 03:43:05;;;;;;;;;;;;;;;5.17;73.55;98653.67;128898;1276;107313;-86
2024/03/25 03:46:09;;;;;;;;;;;;;;;5.11;73.61;98656.94;129061;1276;108782;-85
2024/03/25 03:49:13;;;;;;;;;;;;;;;5.06;73.57;98659.13;129339;1280;109112;-79
2024/03/25 03:52:16;;;;;;;;;;;;;;;5.05;73.84;98664.98;128768;1276;107696;-79
2024/03/25 03:55:21;;;;;;;;;;;;;;;5.02;73.33;98659.44;128738;1281;106874;-79
2024/03/25 03:58:25;;;;;;;;;;;;;;;4.99;73.75;98665.07;128676;1280;107847;-78
2024/03/25 04:01:29;;;;;;;;;;;;;;;4.92;73.57;98661.53;128542;1282;108142;-79
2024/03/25 04:04:33;;;;;;;;;;;;;;;4.84;73.50;98660.71;128536;1278;107732;-79
2024/03/25 04:07:36;;;;;;;;;;;;;;;4.80;73.82;98661.12;128639;1276;106273;-79
2024/03/25 04:10:40;;;;;;;;;;;;;;;4.76;73.62;98658.74;128586;1279;107580;-80
2024/03/25 04:13:44;;;;;;;;;;;;;;;4.74;73.89;98654.48;128637;1278;107004;-79
2024/03/25 04:16:48;;;;;;;;;;;;;;;4.71;73.84;98654.75;128681;1278;106625;-79
2024/03/25 04:19:52;;;;;;;;;;;;;;;4.70;73.68;98655.94;128642;1285;106506;-79
2024/03/25 04:22:56;;;;;;;;;;;;;;;4.69;73.85;98656.06;128568;1282;108665;-79
2024/03/25 04:26:04;;;;;;;;;;;;;;;4.67;73.75;98660.19;128461;1282;106748;-79
2024/03/25 04:29:07;;;;;;;;;;;;;;;4.65;73.87;98663.30;128659;1282;106560;-79
2024/03/25 04:32:11;;;;;;;;;;;;;;;4.64;73.83;98665.48;128509;1276;107248;-79
2024/03/25 04:35:15;;;;;;;;;;;;;;;4.63;73.89;98671.48;128519;1282;107341;-79
2024/03/25 04:38:19;;;;;;;;;;;;;;;4.62;74.06;98671.59;128544;1282;108899;-79
2024/03/25 04:41:23;;;;;;;;;;;;;;;4.59;74.17;98670.23;128403;1290;109212;-79
2024/03/25 04:44:28;;;;;;;;;;;;;;;4.58;74.10;98671.77;128402;1289;108626;-79
2024/03/25 04:47:31;;;;;;;;;;;;;;;4.57;73.98;98672.39;128402;1281;108816;-79
2024/03/25 04:50:35;;;;;;;;;;;;;;;4.56;74.24;98671.33;128410;1281;107847;-79
2024/03/25 04:53:39;;;;;;;;;;;;;;;4.57;74.15;98672.81;128406;1277;108769;-79
2024/03/25 04:56:44;;;;;;;;;;;;;;;4.57;74.22;98674.57;128421;1277;109052;-79
2024/03/25 04:59:47;;;;;;;;;;;;;;;4.54;74.02;98671.31;128544;1282;108844;-79
2024/03/25 05:02:52;;;;;;;;;;;;;;;4.56;74.21;98675.91;128587;1281;108727;-78
2024/03/25 05:05:56;;;;;;;;;;;;;;;4.55;74.20;98675.08;128687;1279;107947;-81
2024/03/25 05:09:00;;;;;;;;;;;;;;;4.56;74.17;98675.56;128958;1278;107347;-79
2024/03/25 05:12:04;;;;;;;;;;;;;;;4.57;74.32;98680.95;128705;1276;107832;-78
2024/03/25 05:15:08;;;;;;;;;;;;;;;4.57;74.52;98684.52;128564;1279;106602;-79
2024/03/25 05:18:12;;;;;;;;;;;;;;;4.61;74.38;98689.62;128472;1289;108607;-79
2024/03/25 05:21:16;;;;;;;;;;;;;;;4.65;74.57;98683.35;128632;1282;108834;-79
2024/03/25 05:24:20;;;;;;;;;;;;;;;4.70;74.61;98686.09;128529;1290;107948;-79
2024/03/25 05:27:23;;;;;;;;;;;;;;;4.74;74.41;98683.55;128468;1283;107751;-79
2024/03/25 05:30:27;;;;;;;;;;;;;;;4.81;74.41;98687.15;128448;1282;106554;-78
2024/03/25 05:33:32;;;;;;;;;;;;;;;4.86;74.45;98686.92;128669;1281;107843;-78
2024/03/25 05:36:35;;;;;;;;;;;;;;;4.93;74.62;98685.02;128699;1282;106829;-78
2024/03/25 05:39:39;;;;;;;;;;;;;;;4.98;74.61;98691.36;128739;1282;106360;-80
2024/03/25 05:42:46;;;;;;;;;;;;;;;5.03;74.41;98692.29;128796;1281;107205;-80
2024/03/25 05:45:54;;;;;;;;;;;;;;;5.07;74.92;98691.35;128639;1282;106419;-80
2024/03/25 05:48:57;;;;;;;;;;;;;;;5.11;74.84;98699.88;128506;1280;106533;-81
2024/03/25 05:52:02;;;;;;;;;;;;;;;5.20;74.87;98698.80;128555;1281;108762;-80
2024/03/25 05:55:06;;;;;;;;;;;;;;;5.34;74.83;98702.73;128595;1279;107316;-80
2024/03/25 05:58:10;;;;;;;;;;;;;;;5.51;74.99;98702.67;128508;1280;107475;-81
2024/03/25 06:01:14;;;;;;;;;;;;;;;5.71;75.01;98703.12;128468;1282;106301;-81
2024/03/25 06:04:17;;;;;;;;;;;;;;;5.93;74.88;98706.48;128570;1274;108760;-83
2024/03/25 06:07:21;;;;;;;;;;;;;;;6.19;74.86;98711.32;128510;1279;107015;-81
2024/03/25 06:10:25;;;;;;;;;;;;;;;6.42;74.67;98708.87;128461;1278;107678;-80
2024/03/25 06:13:29;;;;;;;;;;;;;;;6.62;74.49;98712.52;128543;1289;107149;-83
2024/03/25 06:16:32;;;;;;;;;;;;;;;6.78;74.10;98715.39;128602;1279;107644;-83
2024/03/25 06:19:36;;;;;;;;;;;;;;;6.90;74.03;98717.17;128558;1282;108476;-82
2024/03/25 06:22:40;;;;;;;;;;;;;;;6.99;73.83;98723.59;128690;1290;107773;-83
2024/03/25 06:25:43;;;;;;;;;;;;;;;7.09;74.01;98724.31;128693;1280;108767;-83
2024/03/25 06:28:47;;;;;;;;;;;;;;;7.15;73.76;98730.90;128548;1287;108884;-83
2024/03/25 06:35:13;;;;;;;;;;;;;;;7.12;73.58;98730.21;128701;1289;108461;-82
2024/03/25 06:38:17;;;;;;;;;;;;;;;7.12;73.65;98730.88;128654;1279;108418;-83
2024/03/25 06:41:20;;;;;;;;;;;;;;;7.18;73.77;98730.20;128598;1279;106499;-82
2024/03/25 06:44:25;;;;;;;;;;;;;;;7.21;73.62;98730.20;128624;1290;107579;-83
2024/03/25 06:47:28;;;;;;;;;;;;;;;7.26;73.47;98727.36;128554;1277;109019;-82
2024/03/25 06:50:32;;;;;;;;;;;;;;;7.32;73.47;98730.06;128560;1277;107806;-83
2024/03/25 06:53:36;;;;;;;;;;;;;;;7.39;73.70;98734.99;128672;1276;106543;-83
2024/03/25 06:56:40;;;;;;;;;;;;;;;7.48;73.52;98734.63;128610;1278;109341;-83
2024/03/25 06:59:43;;;;;;;;;;;;;;;7.62;73.73;98734.65;128690;1282;108177;-83
2024/03/25 07:02:47;;;;;;;;;;;;;;;7.77;73.51;98736.85;128738;1279;108886;-83
2024/03/25 07:05:53;;;;;;;;;;;;;;;7.93;73.21;98739.91;128722;1290;107642;-83
2024/03/25 07:08:57;;;;;;;;;;;;;;;8.02;72.97;98738.66;128691;1282;108596;-83
2024/03/25 07:12:01;;;;;;;;;;;;;;;8.11;72.98;98742.67;128722;1278;107743;-83
2024/03/25 07:15:06;;;;;;;;;;;;;;;8.13;72.90;98742.55;128667;1290;107359;-83
2024/03/25 07:18:10;;;;;;;;;;;;;;;8.09;72.60;98741.25;128458;1280;108723;-83
2024/03/25 07:21:14;;;;;;;;;;;;;;;8.05;72.81;98744.36;128568;1278;107727;-82
2024/03/25 07:24:18;;;;;;;;;;;;;;;8.01;72.71;98752.08;128703;1281;107977;-82
2024/03/25 07:27:23;;;;;;;;;;;;;;;8.00;72.72;98752.59;128545;1281;106103;-83
2024/03/25 07:30:28;;;;;;;;;;;;;;;7.99;72.63;98753.19;128469;1279;108927;-82
2024/03/25 07:33:32;;;;;;;;;;;;;;;7.97;72.50;98755.99;128504;1281;107675;-83
2024/03/25 07:36:36;;;;;;;;;;;;;;;7.94;72.44;98761.71;128739;1282;108289;-83
2024/03/25 07:39:40;;;;;;;;;;;;;;;7.95;72.40;98763.09;128651;1281;107039;-83
2024/03/25 07:42:43;;;;;;;;;;;;;;;7.93;72.48;98762.58;128622;1281;107812;-83
2024/03/25 07:45:47;;;;;;;;;;;;;;;7.93;72.26;98763.51;128575;1276;107882;-83
2024/03/25 07:48:51;;;;;;;;;;;;;;;7.92;72.34;98767.25;128737;1282;107788;-83
2024/03/25 07:51:56;;;;;;;;;;;;;;;7.95;72.20;98763.57;128440;1290;107138;-82
2024/03/25 07:54:59;;;;;;;;;;;;;;;7.97;72.51;98767.58;128743;1282;107353;-83
2024/03/25 07:58:04;;;;;;;;;;;;;;;7.98;72.18;98763.75;128510;1283;108657;-82
2024/03/25 08:01:08;;;;;;;;;;;;;;;8.03;72.32;98764.63;128476;1292;106827;-82
2024/03/25 08:04:12;;;;;;;;;;;;;;;8.06;72.26;98764.45;128483;1281;108328;-82
2024/03/25 08:07:15;;;;;;;;;;;;;;;8.05;72.48;98767.73;128641;1281;106704;-82
2024/03/25 08:10:19;;;;;;;;;;;;;;;8.17;72.28;98765.02;128382;1281;107725;-83
2024/03/25 08:13:26;;;;;;;;;;;;;;;8.22;71.91;98770.65;128397;1281;107645;-83
2024/03/25 08:16:30;;;;;;;;;;;;;;;8.29;71.84;98770.00;128497;1290;108656;-83
2024/03/25 08:19:34;;;;;;;;;;;;;;;8.38;72.13;98773.79;128457;1280;106735;-84
2024/03/25 08:22:38;;;;;;;;;;;;;;;8.54;72.16;98777.99;128349;1276;106855;-84
2024/03/25 08:25:42;;;;;;;;;;;;;;;8.73;71.88;98773.14;128359;1290;107319;-83
2024/03/25 08:28:45;;;;;;;;;;;;;;;8.88;71.58;98772.98;128509;1282;107796;-83
2024/03/25 08:31:49;;;;;;;;;;;;;;;9.02;71.39;98772.77;128497;1277;106337;-83
2024/03/25 08:34:53;;;;;;;;;;;;;;;9.13;71.17;98778.83;128560;1279;107974;-83
2024/03/25 08:37:57;;;;;;;;;;;;;;;9.27;71.71;98782.70;128834;1289;107734;-83
2024/03/25 08:41:00;;;;;;;;;;;;;;;9.38;71.11;98788.95;128849;1279;108173;-83
2024/03/25 08:44:04;;;;;;;;;;;;;;;9.47;71.04;98786.70;128810;1279;106803;-83
2024/03/25 08:47:08;;;;;;;;;;;;;;;9.57;71.00;98794.25;128817;1280;108800;-84
2024/03/25 08:50:12;;;;;;;;;;;;;;;9.59;70.81;98793.55;128768;1287;107554;-83
2024/03/25 08:53:15;;;;;;;;;;;;;;;9.57;70.63;98796.84;128623;1279;107122;-84
2024/03/25 08:56:20;;;;;;;;;;;;;;;9.54;70.60;98797.70;128576;1285;107811;-83
2024/03/25 08:59:24;;;;;;;;;;;;;;;9.52;70.47;98797.80;128660;1279;106721;-82
2024/03/25 09:02:28;;;;;;;;;;;;;;;9.55;70.72;98801.33;128556;1281;107717;-83
2024/03/25 09:05:31;;;;;;;;;;;;;;;9.58;70.34;98803.86;128536;1279;107348;-83
2024/03/25 09:11:02;;;;;;;;;;;;;;;9.56;70.03;98803.91;128594;1278;107805;-83
2024/03/25 09:11:59;;;;;;;;;;;;;;;9.53;70.08;98803.09;128670;1276;107151;-83
2024/03/25 09:15:03;;;;;;;;;;;;;;;9.56;70.47;98801.54;128623;1289;108552;-83
2024/03/25 09:18:07;;;;;;;;;;;;;;;9.67;70.18;98801.49;128612;1280;105825;-83
2024/03/25 09:21:12;;;;;;;;;;;;;;;9.83;70.10;98804.75;128587;1279;107142;-83
2024/03/25 09:24:17;;;;;;;;;;;;;;;9.99;70.11;98806.44;128558;1280;108763;-83
2024/03/25 09:27:21;;;;;;;;;;;;;;;10.14;70.10;98802.52;128669;1279;106876;-83
2024/03/25 09:30:25;;;;;;;;;;;;;;;10.21;69.46;98803.42;128643;1280;108780;-83
2024/03/25 09:33:28;;;;;;;;;;;;;;;10.17;69.68;98805.94;128577;1280;108677;-83
2024/03/25 09:36:33;;;;;;;;;;;;;;;10.14;69.57;98807.48;128369;1282;108694;-83
2024/03/25 09:39:36;;;;;;;;;;;;;;;10.04;69.06;98810.20;128506;1280;107741;-83
2024/03/25 09:42:44;;;;;;;;;;;;;;;9.93;69.24;98814.67;128650;1289;108612;-83
2024/03/25 09:45:49;;;;;;;;;;;;;;;9.86;69.13;98814.41;128572;1282;108896;-83
2024/03/25 09:48:53;;;;;;;;;;;;;;;9.70;68.91;98823.25;128611;1277;108465;-83
2024/03/25 09:51:57;;;;;;;;;;;;;;;9.56;69.23;98827.14;128559;1289;108359;-82
2024/03/25 09:55:01;;;;;;;;;;;;;;;9.48;69.35;98828.83;128590;1276;106826;-83
2024/03/25 09:58:05;;;;;;;;;;;;;;;9.43;69.28;98831.16;128653;1289;106822;-83
2024/03/25 10:01:09;;;;;;;;;;;;;;;9.44;69.33;98837.48;128483;1293;106936;-83
2024/03/25 10:04:13;;;;;;;;;;;;;;;9.52;69.53;98834.58;128709;1279;108759;-82
2024/03/25 10:07:23;;;;;;;;;;;;;;;9.63;69.23;98839.13;128713;1279;107652;-82
2024/03/25 10:10:27;;;;;;;;;;;;;;;9.74;68.98;98835.81;128532;1279;108501;-83
2024/03/25 10:13:31;;;;;;;;;;;;;;;9.79;68.84;98835.83;128640;1278;108061;-84
2024/03/25 10:16:35;;;;;;;;;;;;;;;9.79;68.74;98836.66;128805;1282;107755;-82
2024/03/25 10:19:39;;;;;;;;;;;;;;;9.73;68.60;98841.81;128645;1289;108733;-82
2024/03/25 10:22:43;;;;;;;;;;;;;;;9.66;68.75;98844.13;128758;1288;107772;-83
2024/03/25 10:25:48;;;;;;;;;;;;;;;9.63;68.84;98848.38;128804;1278;108891;-83
2024/03/25 10:29:00;;;;;;;;;;;;;;;9.57;68.67;98851.15;128670;1279;106818;-83
2024/03/25 10:32:04;;;;;;;;;;;;;;;9.50;68.76;98850.40;128709;1276;107785;-83
2024/03/25 10:35:08;;;;;;;;;;;;;;;9.43;68.78;98852.85;128605;1281;108721;-83
2024/03/25 10:38:16;;;;;;;;;;;;;;;9.34;68.66;98854.39;128686;1280;108923;-83
2024/03/25 10:41:22;;;;;;;;;;;;;;;9.28;69.02;98856.52;128687;1276;106568;-84
2024/03/25 10:44:26;;;;;;;;;;;;;;;9.22;68.50;98854.20;128622;1280;108676;-83
2024/03/25 10:47:31;;;;;;;;;;;;;;;9.21;68.91;98854.18;128627;1280;108494;-83
2024/03/25 10:50:35;;;;;;;;;;;;;;;9.26;68.59;98853.95;128588;1281;108905;-83
2024/03/25 10:53:39;;;;;;;;;;;;;;;9.24;68.54;98856.11;128462;1283;108731;-83
2024/03/25 10:56:43;;;;;;;;;;;;;;;9.28;68.61;98856.02;128603;1283;107377;-83
2024/03/25 10:59:48;;;;;;;;;;;;;;;9.33;68.86;98856.80;128648;1281;108593;-82
2024/03/25 11:02:53;;;;;;;;;;;;;;;9.50;68.97;98856.46;128693;1281;108749;-83
2024/03/25 11:05:56;;;;;;;;;;;;;;;9.66;68.41;98858.84;128664;1276;108511;-83
2024/03/25 11:09:00;;;;;;;;;;;;;;;9.79;68.44;98857.47;128748;1279;107746;-83
2024/03/25 11:12:05;;;;;;;;;;;;;;;9.94;68.25;98857.82;128790;1279;109147;-83
2024/03/25 11:15:10;;;;;;;;;;;;;;;10.08;68.20;98862.02;128763;1280;107827;-83
2024/03/25 11:18:14;;;;;;;;;;;;;;;10.25;68.10;98861.73;128728;1277;107632;-83
2024/03/25 11:21:25;;;;;;;;;;;;;;;10.41;67.93;98862.20;128766;1277;107954;-83
2024/03/25 11:24:29;;;;;;;;;;;;;;;10.53;67.86;98859.23;128674;1279;108812;-83
2024/03/25 11:27:33;;;;;;;;;;;;;;;10.68;67.36;98858.95;128767;1279;106881;-84
2024/03/25 11:30:36;;;;;;;;;;;;;;;10.79;67.43;98865.02;128832;1279;107839;-83
2024/03/25 11:33:40;;;;;;;;;;;;;;;10.91;67.21;98862.77;128813;1289;107481;-83
2024/03/25 11:36:44;;;;;;;;;;;;;;;10.93;66.47;98864.30;128767;1279;107569;-83
2024/03/25 11:39:48;;;;;;;;;;;;;;;10.83;66.65;98868.98;128597;1279;107278;-83
2024/03/25 11:42:53;;;;;;;;;;;;;;;10.65;65.04;98865.64;128737;1277;107463;-83
2024/03/25 11:45:56;;;;;;;;;;;;;;;10.42;66.60;98862.17;128574;1278;108465;-83
2024/03/25 11:49:00;;;;;;;;;;;;;;;10.35;65.66;98862.85;128717;1280;106333;-83
2024/03/25 11:52:07;;;;;;;;;;;;;;;10.20;66.26;98862.81;128665;1289;106877;-83
2024/03/25 11:55:11;;;;;;;;;;;;;;;10.26;66.59;98860.98;128749;1279;107089;-82
2024/03/25 11:58:15;;;;;;;;;;;;;;;10.36;66.79;98861.77;128649;1278;108739;-83
2024/03/25 12:01:19;;;;;;;;;;;;;;;10.51;66.50;98861.52;128722;1279;107638;-83
2024/03/25 12:04:24;;;;;;;;;;;;;;;10.70;66.20;98859.20;128811;1276;108999;-82
2024/03/25 12:07:28;;;;;;;;;;;;;;;10.85;65.64;98857.39;128776;1276;108927;-82
2024/03/25 12:13:53;;;;;;;;;;;;;;;10.90;64.85;98857.71;128719;1276;107914;-83
2024/03/25 12:16:57;;;;;;;;;;;;;;;10.84;65.02;98853.00;128596;1276;107955;-82
2024/03/25 12:20:03;;;;;;;;;;;;;;;10.82;65.16;98852.16;128597;1290;108789;-82
2024/03/25 12:23:07;;;;;;;;;;;;;;;10.89;65.31;98852.97;128576;1279;107407;-87
2024/03/25 12:26:11;;;;;;;;;;;;;;;11.03;65.63;98855.45;128621;1289;106352;-84
2024/03/25 12:29:15;;;;;;;;;;;;;;;11.21;65.29;98856.56;128522;1282;108538;-84
2024/03/25 12:32:19;;;;;;;;;;;;;;;11.31;64.49;98859.86;128523;1280;108572;-84
2024/03/25 12:35:23;;;;;;;;;;;;;;;11.26;64.94;98860.51;128439;1276;108819;-84
2024/03/25 12:38:27;;;;;;;;;;;;;;;11.21;65.19;98862.27;128465;1280;107194;-85
2024/03/25 12:41:33;;;;;;;;;;;;;;;11.17;65.12;98860.84;128613;1282;107944;-86
2024/03/25 12:44:37;;;;;;;;;;;;;;;11.16;65.00;98860.67;128728;1276;107212;-83
2024/03/25 12:47:41;;;;;;;;;;;;;;;11.14;64.81;98862.34;128814;1281;106658;-83
2024/03/25 12:50:45;;;;;;;;;;;;;;;11.01;64.32;98861.96;128702;1280;107957;-82
2024/03/25 12:53:48;;;;;;;;;;;;;;;11.06;64.58;98860.16;128708;1282;108878;-82
2024/03/25 12:56:52;;;;;;;;;;;;;;;11.04;64.56;98861.13;128752;1281;106730;-83
2024/03/25 12:59:56;;;;;;;;;;;;;;;11.08;64.66;98866.14;128626;1282;106692;-82
2024/03/25 13:03:01;;;;;;;;;;;;;;;11.16;64.35;98866.74;128673;1281;106633;-83
2024/03/25 13:06:05;;;;;;;;;;;;;;;11.21;64.32;98868.36;128742;1278;108801;-82
2024/03/25 13:09:12;;;;;;;;;;;;;;;11.24;64.17;98869.12;128804;1276;106458;-82
2024/03/25 13:12:16;;;;;;;;;;;;;;;11.27;63.93;98868.73;128932;1280;107802;-82
2024/03/25 13:15:20;;;;;;;;;;;;;;;11.30;64.30;98869.21;128771;1278;107764;-84
2024/03/25 13:18:23;;;;;;;;;;;;;;;11.32;63.84;98870.38;128745;1290;107569;-84
2024/03/25 13:21:27;;;;;;;;;;;;;;;11.33;64.23;98872.77;128553;1280;107999;-84
2024/03/25 13:24:31;;;;;;;;;;;;;;;11.32;63.98;98873.25;128403;1279;107803;-84
2024/03/25 13:27:35;;;;;;;;;;;;;;;11.27;64.18;98868.89;128576;1281;107898;-84
2024/03/25 13:30:39;;;;;;;;;;;;;;;11.24;63.98;98873.15;128384;1281;108757;-84
2024/03/25 13:33:43;;;;;;;;;;;;;;;11.24;63.92;98879.71;128445;1289;108583;-84
2024/03/25 13:36:46;;;;;;;;;;;;;;;11.24;63.80;98883.99;128479;1276;108782;-83
2024/03/25 13:39:50;;;;;;;;;;;;;;;11.22;63.59;98885.45;128679;1278;107683;-83
2024/03/25 13:42:54;;;;;;;;;;;;;;;11.13;63.61;98888.53;128665;1279;106914;-83
2024/03/25 13:45:58;;;;;;;;;;;;;;;11.06;63.94;98890.35;128833;1279;107628;-83
2024/03/25 13:49:02;;;;;;;;;;;;;;;11.12;64.13;98894.56;128408;1281;108465;-83
2024/03/25 13:52:05;;;;;;;;;;;;;;;11.23;63.96;98896.09;128711;1279;108882;-82
2024/03/25 13:55:09;;;;;;;;;;;;;;;11.13;62.40;98898.25;128533;1276;106656;-82
2024/03/25 13:58:13;;;;;;;;;;;;;;;10.99;63.69;98898.52;128784;1279;108670;-83
2024/03/25 14:01:18;;;;;;;;;;;;;;;10.99;62.97;98898.15;128918;1278;106824;-83
2024/03/25 14:04:21;;;;;;;;;;;;;;;10.89;63.30;98897.43;128944;1279;108583;-82
2024/03/25 14:07:25;;;;;;;;;;;;;;;10.80;63.01;98899.77;128602;1276;108751;-84
2024/03/25 14:10:29;;;;;;;;;;;;;;;10.67;62.65;98904.03;128900;1279;106612;-83
2024/03/25 14:13:34;;;;;;;;;;;;;;;10.55;62.14;98904.21;128578;1276;107991;-84
2024/03/25 14:16:37;;;;;;;;;;;;;;;10.42;62.68;98907.71;128696;1281;108040;-85
2024/03/25 14:19:41;;;;;;;;;;;;;;;10.35;62.57;98907.20;128727;1276;107901;-85
2024/03/25 14:22:45;;;;;;;;;;;;;;;10.27;62.56;98910.11;128743;1277;106621;-85
2024/03/25 14:25:49;;;;;;;;;;;;;;;10.13;62.90;98913.08;128668;1281;107518;-84
2024/03/25 14:28:53;;;;;;;;;;;;;;;10.09;63.11;98916.32;128803;1279;108735;-86
2024/03/25 14:31:56;;;;;;;;;;;;;;;10.11;63.29;98917.30;128486;1279;212431;-86
2024/03/25 14:35:01;;;;;;;;;;;;;;;10.09;63.35;98920.39;128786;1278;108072;-83
2024/03/25 14:38:05;;;;;;;;;;;;;;;10.11;63.76;98919.80;128883;1276;108767;-84
2024/03/25 14:41:09;;;;;;;;;;;;;;;10.01;63.66;98930.89;128636;1276;107793;-83
2024/03/25 14:44:12;;;;;;;;;;;;;;;9.76;63.97;98927.72;128566;1276;107759;-84
2024/03/25 14:47:16;;;;;;;;;;;;;;;9.67;64.94;98926.38;128589;1276;106835;-84
2024/03/25 14:50:20;;;;;;;;;;;;;;;9.57;65.39;98930.93;128749;1279;108448;-85
2024/03/25 14:53:24;;;;;;;;;;;;;;;9.52;66.05;98931.13;128499;1281;108640;-85
2024/03/25 14:56:28;;;;;;;;;;;;;;;9.44;65.81;98934.02;128505;1277;107861;-84
2024/03/25 14:59:31;;;;;;;;;;;;;;;9.49;66.10;98935.29;128478;1280;107116;-84
2024/03/25 15:02:35;;;;;;;;;;;;;;;9.55;66.00;98936.42;128564;1280;107420;-84
2024/03/25 15:05:39;;;;;;;;;;;;;;;9.57;65.64;98935.34;128685;1276;108835;-83
2024/03/25 15:08:43;;;;;;;;;;;;;;;9.56;65.74;98937.02;128960;1278;106526;-82
2024/03/25 15:11:47;;;;;;;;;;;;;;;9.60;65.99;98929.30;129062;1275;108374;-83
2024/03/25 15:14:51;;;;;;;;;;;;;;;9.62;65.95;98926.91;129113;1276;107687;-84
2024/03/25 15:17:54;;;;;;;;;;;;;;;9.68;65.98;98923.58;129344;1279;107836;-83
2024/03/25 15:21:02;;;;;;;;;;;;;;;9.73;65.64;98922.40;128815;1275;108191;-83
2024/03/25 15:24:07;;;;;;;;;;;;;;;9.75;65.79;98924.13;128609;1275;107885;-84
2024/03/25 15:27:11;;;;;;;;;;;;;;;9.77;65.83;98922.55;128652;1281;108385;-83
2024/03/25 15:30:15;;;;;;;;;;;;;;;9.78;65.49;98923.80;128602;1276;108776;-83
2024/03/25 15:33:22;;;;;;;;;;;;;;;9.79;65.55;98926.16;128833;1279;108545;-87
2024/03/25 15:36:29;;;;;;;;;;;;;;;9.83;65.61;98930.89;128678;1279;107590;-83
2024/03/25 15:39:33;;;;;;;;;;;;;;;9.90;65.57;98931.36;128840;1280;108458;-83
2024/03/25 15:42:37;;;;;;;;;;;;;;;9.93;65.38;98929.73;128678;1281;106810;-82
2024/03/25 15:45:42;;;;;;;;;;;;;;;9.98;65.26;98933.96;128620;1276;108930;-84
2024/03/25 15:48:46;;;;;;;;;;;;;;;10.03;65.34;98934.53;128600;1276;107044;-83
2024/03/25 15:51:53;;;;;;;;;;;;;;;10.08;65.72;98928.86;128531;1277;108524;-83